createdAt,value
2022-11-15T00:01:31.501Z,6.05
2022-11-15T00:06:51.797Z,6.12
2022-11-15T00:12:11.761Z,6.08
2022-11-15T00:17:31.676Z,6.12
2022-11-15T00:22:52.004Z,6.12
2022-11-15T00:28:11.879Z,5.99
2022-11-15T00:33:32.256Z,6.09
2022-11-15T00:38:52.513Z,6.15
2022-11-15T00:44:12.406Z,6.04
2022-11-15T00:49:32.296Z,6.05
2022-11-15T00:54:52.339Z,6.14
2022-11-15T01:00:42.367Z,6.04
2022-11-15T01:06:02.868Z,6.10
2022-11-15T01:11:23.198Z,6.17
2022-11-15T01:16:43.146Z,6.14
2022-11-15T01:22:03.552Z,6.19
2022-11-15T01:27:23.727Z,6.17
2022-11-15T01:32:44.068Z,6.17
2022-11-15T01:38:04.486Z,6.16
2022-11-15T01:43:24.641Z,6.24
2022-11-15T01:48:44.789Z,6.31
2022-11-15T01:54:07.930Z,6.26
2022-11-15T01:59:28.293Z,6.30
2022-11-15T02:04:48.565Z,6.37
2022-11-15T02:10:11.828Z,6.37
2022-11-15T02:15:39.518Z,6.30
2022-11-15T02:21:07.391Z,6.35
2022-11-15T02:26:46.552Z,6.38
2022-11-15T02:32:20.277Z,6.46
2022-11-15T02:37:40.125Z,6.46
2022-11-15T02:43:24.001Z,6.51
2022-11-15T02:48:44.348Z,6.49
2022-11-15T02:54:04.482Z,6.63
2022-11-15T02:59:39.973Z,6.62
2022-11-15T03:05:09.955Z,6.63
2022-11-15T03:10:46.704Z,6.74
2022-11-15T03:16:10.142Z,6.73
2022-11-15T03:21:31.614Z,6.73
2022-11-15T03:26:53.107Z,6.70
2022-11-15T03:32:16.997Z,6.75
2022-11-15T03:37:43.717Z,6.84
2022-11-15T03:43:06.934Z,6.95
2022-11-15T03:48:29.704Z,6.96
2022-11-15T03:53:49.808Z,7.04
2022-11-15T03:59:10.013Z,7.13
2022-11-15T04:04:30.172Z,7.19
2022-11-15T04:10:06.356Z,7.28
2022-11-15T04:15:26.818Z,7.35
2022-11-15T04:21:05.474Z,7.44
2022-11-15T04:26:25.768Z,7.50
2022-11-15T04:31:45.873Z,7.57
2022-11-15T04:37:17.195Z,7.64
2022-11-15T04:42:37.344Z,7.69
2022-11-15T04:47:58.492Z,7.75
2022-11-15T04:53:18.884Z,7.79
2022-11-15T04:58:39.137Z,7.86
2022-11-15T05:04:18.322Z,7.89
2022-11-15T05:09:38.610Z,7.94
2022-11-15T05:14:58.479Z,7.98
2022-11-15T05:20:18.431Z,8.03
2022-11-15T05:25:38.901Z,8.08
2022-11-15T05:31:09.756Z,8.09
2022-11-15T05:36:36.625Z,8.13
2022-11-15T05:42:00.700Z,8.20
2022-11-15T05:47:24.227Z,8.28
2022-11-15T05:52:45.232Z,8.35
2022-11-15T05:58:05.571Z,8.36
2022-11-15T06:03:25.953Z,8.38
2022-11-15T06:08:46.195Z,8.39
2022-11-15T06:14:06.934Z,8.42
2022-11-15T06:19:27.874Z,8.44
2022-11-15T06:24:51.672Z,8.46
2022-11-15T06:30:12.481Z,8.47
2022-11-15T06:35:35.782Z,8.49
2022-11-15T06:40:55.900Z,8.49
2022-11-15T06:46:16.294Z,8.50
2022-11-15T06:51:36.795Z,8.52
2022-11-15T06:56:57.011Z,8.53
2022-11-15T07:07:55.353Z,8.49
2022-11-15T07:13:15.775Z,8.45
2022-11-15T07:18:37.151Z,8.39
2022-11-15T07:23:57.321Z,8.39
2022-11-15T07:29:17.141Z,8.43
2022-11-15T07:34:37.118Z,8.38
2022-11-15T07:39:57.137Z,8.46
2022-11-15T07:45:17.351Z,8.49
2022-11-15T07:51:18.768Z,8.50
2022-11-15T07:56:40.086Z,8.52
2022-11-15T08:02:00.328Z,8.53
2022-11-15T08:07:20.516Z,8.56
2022-11-15T08:12:40.709Z,8.56
2022-11-15T08:18:02.471Z,8.56
2022-11-15T08:23:26.902Z,8.56
2022-11-15T08:28:47.271Z,8.44
2022-11-15T08:34:07.638Z,8.42
2022-11-15T08:39:27.802Z,8.42
2022-11-15T08:44:48.098Z,8.49
2022-11-15T08:50:08.497Z,8.56
2022-11-15T08:55:29.070Z,8.62
2022-11-15T09:00:50.395Z,8.68
2022-11-15T09:06:11.807Z,8.77
2022-11-15T09:11:33.678Z,8.82
2022-11-15T09:16:53.745Z,8.91
2022-11-15T09:22:14.056Z,8.96
2022-11-15T09:27:34.369Z,9.05
2022-11-15T09:32:54.722Z,9.08
2022-11-15T09:38:15.023Z,9.13
2022-11-15T09:43:48.543Z,9.24
2022-11-15T09:49:10.325Z,9.24
2022-11-15T09:54:52.231Z,9.27
2022-11-15T10:00:30.719Z,9.25
2022-11-15T10:05:27.459Z,9.31
2022-11-15T10:10:43.913Z,9.31
2022-11-15T10:15:48.740Z,9.38
2022-11-15T10:20:51.827Z,9.46
2022-11-15T10:25:56.078Z,9.53
2022-11-15T10:30:59.594Z,9.59
2022-11-15T10:36:09.957Z,9.64
2022-11-15T10:41:12.678Z,9.69
2022-11-15T10:46:45.616Z,9.69
2022-11-15T10:52:00.793Z,9.73
2022-11-15T10:57:14.545Z,9.85
2022-11-15T11:02:31.276Z,9.92
2022-11-15T11:07:34.939Z,9.99
2022-11-15T11:12:45.779Z,9.95
2022-11-15T11:17:48.125Z,9.99
2022-11-15T11:23:09.550Z,9.99
2022-11-15T11:28:30.755Z,10.02
2022-11-15T11:33:53.856Z,10.05
2022-11-15T11:39:27.888Z,10.13
2022-11-15T11:44:36.964Z,10.18
2022-11-15T11:49:52.973Z,10.16
2022-11-15T11:55:01.706Z,10.26
2022-11-15T12:00:06.156Z,10.32
2022-11-15T12:05:21.251Z,10.34
2022-11-15T12:10:29.758Z,10.33
2022-11-15T12:15:34.851Z,10.32
2022-11-15T12:20:38.751Z,10.37
2022-11-15T12:26:01.956Z,10.32
2022-11-15T12:31:12.824Z,10.39
2022-11-15T12:36:23.614Z,10.34
2022-11-15T12:41:30.036Z,10.30
2022-11-15T12:46:34.217Z,10.35
2022-11-15T12:51:45.094Z,10.37
2022-11-15T12:56:46.669Z,10.36
2022-11-15T13:01:49.009Z,10.37
2022-11-15T13:06:53.933Z,10.40
2022-11-15T13:11:56.693Z,10.42
2022-11-15T13:17:00.441Z,10.40
2022-11-15T13:22:24.251Z,10.39
2022-11-15T13:27:25.816Z,10.43
2022-11-15T13:32:27.470Z,10.43
2022-11-15T13:37:30.876Z,10.45
2022-11-15T13:42:32.793Z,10.49
2022-11-15T13:47:34.563Z,10.47
2022-11-15T13:52:37.498Z,10.47
2022-11-15T13:57:47.055Z,10.45
2022-11-15T14:02:48.800Z,10.39
2022-11-15T14:08:00.233Z,10.40
2022-11-15T14:13:02.420Z,10.42
2022-11-15T14:18:05.528Z,10.39
2022-11-15T14:28:27.042Z,10.35
2022-11-15T14:33:37.935Z,10.35
2022-11-15T14:38:39.808Z,10.31
2022-11-15T14:43:44.814Z,10.27
2022-11-15T14:48:46.575Z,10.25
2022-11-15T14:53:50.309Z,10.23
2022-11-15T14:58:52.158Z,10.22
2022-11-15T15:03:57.242Z,10.21
2022-11-15T15:08:58.966Z,10.28
2022-11-15T15:14:02.357Z,10.23
2022-11-15T15:19:04.127Z,10.26
2022-11-15T15:24:14.646Z,10.27
2022-11-15T15:29:16.552Z,10.23
2022-11-15T15:34:19.605Z,10.23
2022-11-15T15:39:21.548Z,10.19
2022-11-15T15:44:23.149Z,10.17
2022-11-15T15:49:25.223Z,10.19
2022-11-15T15:54:27.042Z,10.16
2022-11-15T15:59:28.846Z,10.12
2022-11-15T16:04:30.656Z,10.13
2022-11-15T16:09:50.845Z,10.14
2022-11-15T16:14:52.437Z,10.12
2022-11-15T16:19:54.185Z,10.08
2022-11-15T16:24:56.266Z,10.02
2022-11-15T16:29:57.829Z,10.02
2022-11-15T16:34:59.434Z,9.94
2022-11-15T16:40:01.505Z,9.95
2022-11-15T16:45:05.129Z,9.88
2022-11-15T16:50:09.534Z,9.82
2022-11-15T16:55:12.503Z,9.73
2022-11-15T17:00:17.627Z,9.77
2022-11-15T17:05:22.419Z,9.72
2022-11-15T17:10:25.591Z,9.67
2022-11-15T17:15:34.418Z,9.63
2022-11-15T17:20:38.163Z,9.63
2022-11-15T17:25:39.812Z,9.61
2022-11-15T17:30:42.153Z,9.59
2022-11-15T17:35:43.706Z,9.53
2022-11-15T17:40:45.353Z,9.54
2022-11-15T17:45:46.936Z,9.55
2022-11-15T17:50:58.762Z,9.46
2022-11-15T17:56:04.388Z,9.48
2022-11-15T18:01:07.094Z,9.46
2022-11-15T18:06:11.345Z,9.41
2022-11-15T18:11:18.022Z,9.43
2022-11-15T18:16:20.906Z,9.45
2022-11-15T18:21:23.646Z,9.52
2022-11-15T18:26:27.755Z,9.51
2022-11-15T18:31:30.650Z,9.49
2022-11-15T18:36:32.373Z,9.52
2022-11-15T18:41:34.732Z,9.55
2022-11-15T18:46:36.598Z,9.54
2022-11-15T18:51:45.176Z,9.56
2022-11-15T18:56:50.750Z,9.57
2022-11-15T19:01:52.782Z,9.60
2022-11-15T19:06:54.515Z,9.64
2022-11-15T19:11:56.315Z,9.64
2022-11-15T19:16:58.033Z,9.71
2022-11-15T19:22:10.995Z,9.66
2022-11-15T19:27:12.582Z,9.66
2022-11-15T19:32:14.543Z,9.69
2022-11-15T19:37:18.428Z,9.66
2022-11-15T19:42:30.494Z,9.65
2022-11-15T19:47:34.399Z,9.59
2022-11-15T19:52:36.114Z,9.61
2022-11-15T19:57:48.375Z,9.66
2022-11-15T20:03:05.742Z,9.70
2022-11-15T20:08:07.938Z,9.75
2022-11-15T20:13:12.668Z,9.71
2022-11-15T20:18:17.880Z,9.69
2022-11-15T20:23:19.774Z,9.75
2022-11-15T20:28:24.148Z,9.75
2022-11-15T20:33:26.564Z,9.69
2022-11-15T20:38:39.982Z,9.71
2022-11-15T20:43:46.062Z,9.75
2022-11-15T20:48:48.769Z,9.80
2022-11-15T20:53:50.432Z,9.83
2022-11-15T20:58:54.997Z,9.81
2022-11-15T21:03:56.954Z,9.91
2022-11-15T21:09:18.509Z,9.87
2022-11-15T21:14:29.671Z,9.87
2022-11-15T21:19:35.648Z,9.89
2022-11-15T21:24:52.603Z,9.89
2022-11-15T21:30:20.599Z,9.93
2022-11-15T21:35:32.414Z,9.94
2022-11-15T21:40:35.229Z,9.99
2022-11-15T21:45:37.484Z,9.99
2022-11-15T21:50:39.376Z,9.99
2022-11-15T21:55:41.217Z,10.00
2022-11-15T22:01:02.770Z,10.01
2022-11-15T22:06:04.831Z,10.04
2022-11-15T22:11:06.418Z,10.08
2022-11-15T22:16:08.901Z,10.06
2022-11-15T22:21:12.293Z,10.12
2022-11-15T22:26:17.398Z,10.08
2022-11-15T22:31:22.454Z,10.13
2022-11-15T22:36:32.896Z,10.18
2022-11-15T22:41:40.810Z,10.17
2022-11-15T22:46:42.784Z,10.18
2022-11-15T22:51:46.773Z,10.19
2022-11-15T22:56:48.690Z,10.21
2022-11-15T23:01:51.717Z,10.23
2022-11-15T23:06:53.520Z,10.27
2022-11-15T23:12:14.414Z,10.28
2022-11-15T23:17:16.293Z,10.31
2022-11-15T23:22:53.598Z,10.31
2022-11-15T23:27:55.297Z,10.32
2022-11-15T23:33:16.860Z,10.31
2022-11-15T23:38:18.551Z,10.31
2022-11-15T23:43:20.987Z,10.27
2022-11-15T23:48:22.848Z,10.29
2022-11-15T23:53:24.529Z,10.28
2022-11-15T23:58:26.196Z,10.29
